Kezdőlap
METAR-TAF:

METAR-TAF

Repülőterek :

Luangphabang, Laosz

földrajzi szélesség: 19-53N, földrajzi hosszúság: 102-08E, magasság: 305 m

Jelenlegi meteorológiai megfigyelések

A jelentés 36 perccel ezelõtt készült, 02:00 UTC
Nyugati szél 2 kt
Hőmérséklet 29°C
Páratartalom 74%
Légköri nyomás 1005 hPa
Látótávolság 10 km, vagy több
Szórványos felhőzet 2000 lábon

METAR: VLLB 220200Z 27002KT 9999 SCT020 29/24 Q1005 NOSIG

Idő: 09:36 (02:36 UTC)

Előrejelzés

A jelentés 3 órával és 36 perccel ezelõtt készült, 23:00 UTC
Az előrejelzés 22-én 00 óra UTC és 22-én 24 óra UTC között érvényes
Nyugati szél 4 kt
Látótávolság 10 km, vagy több
Szórványos felhőzet 2000 lábon
Szakadozott felhőzet 6000 lábon

TAF: VLLB 212300Z 2200/2224 27004KT 9999 SCT020 BKN060

Meteorológiai megfigyelések és előrejelzések több, mint 4000 repülőtéren (METAR és TAF jelentéseket).

A térképen piros és sárga pontok jelzik az elérhető meteorológiai állomásokat.

Mozgassa az egeret a pont fölött, hogy megjelenjen az állomás neve.

Azután kattintson az időjárási megfigyelések és előrejelzések megtekintéséhez.

A térkép megváltoztatása: kattintson a fekete keresztel jelölt zöld gombra ráközelítéshez, a vonallal jelölt zöld gombra távolításhoz, vagy a zöld nyilakra a szomszédos térképek eléréséhez.


METAR-TAF: